createdAt,value
2018-04-06T00:00:23.725Z,1.80
2018-04-06T00:02:53.188Z,1.70
2018-04-06T00:05:31.785Z,1.60
2018-04-06T00:08:00.202Z,1.60
2018-04-06T00:10:29.997Z,1.60
2018-04-06T00:12:59.714Z,1.60
2018-04-06T00:15:28.789Z,1.70
2018-04-06T00:17:56.476Z,1.70
2018-04-06T00:20:25.253Z,1.60
2018-04-06T00:22:54.120Z,1.60
2018-04-06T00:25:32.492Z,1.60
2018-04-06T00:28:00.158Z,1.70
2018-04-06T00:30:27.926Z,1.70
2018-04-06T00:32:56.482Z,1.70
2018-04-06T00:35:25.067Z,1.70
2018-04-06T00:37:56.402Z,1.70
2018-04-06T00:40:27.721Z,1.70
2018-04-06T00:42:56.755Z,1.80
2018-04-06T00:45:27.679Z,1.80
2018-04-06T00:47:58.512Z,1.90
2018-04-06T00:50:26.142Z,2.00
2018-04-06T00:52:55.352Z,2.10
2018-04-06T00:55:23.657Z,2.10
2018-04-06T00:57:56.385Z,2.10
2018-04-06T01:00:27.205Z,2.20
2018-04-06T01:02:57.218Z,2.10
2018-04-06T01:05:28.402Z,2.20
2018-04-06T01:07:56.338Z,2.30
2018-04-06T01:10:24.641Z,2.40
2018-04-06T01:12:54.279Z,2.40
2018-04-06T01:15:26.107Z,2.40
2018-04-06T01:17:54.741Z,2.40
2018-04-06T01:20:27.213Z,2.40
2018-04-06T01:23:07.120Z,2.40
2018-04-06T01:25:34.639Z,2.40
2018-04-06T01:28:02.920Z,2.30
2018-04-06T01:30:30.413Z,2.30
2018-04-06T01:32:59.543Z,2.40
2018-04-06T01:35:28.710Z,2.40
2018-04-06T01:37:58.968Z,2.40
2018-04-06T01:40:28.433Z,2.40
2018-04-06T01:42:56.379Z,2.40
2018-04-06T01:45:25.656Z,2.40
2018-04-06T01:47:56.973Z,2.40
2018-04-06T01:50:27.713Z,2.30
2018-04-06T01:52:58.023Z,2.30
2018-04-06T01:55:27.475Z,2.30
2018-04-06T01:57:57.034Z,2.30
2018-04-06T02:00:28.494Z,2.30
2018-04-06T02:03:07.164Z,2.20
2018-04-06T02:05:34.705Z,2.20
2018-04-06T02:08:02.977Z,2.20
2018-04-06T02:10:30.474Z,2.10
2018-04-06T02:13:08.250Z,2.20
2018-04-06T02:15:35.746Z,2.20
2018-04-06T02:18:04.039Z,2.10
2018-04-06T02:20:32.317Z,2.20
2018-04-06T02:23:00.604Z,2.20
2018-04-06T02:25:28.914Z,2.20
2018-04-06T02:27:57.420Z,2.10
2018-04-06T02:30:35.686Z,2.00
2018-04-06T02:33:03.203Z,2.00
2018-04-06T02:35:31.482Z,2.00
2018-04-06T02:38:11.900Z,2.00
2018-04-06T02:40:39.447Z,1.90
2018-04-06T02:43:07.003Z,2.00
2018-04-06T02:45:34.533Z,1.90
2018-04-06T02:48:02.029Z,2.00
2018-04-06T02:50:30.163Z,1.90
2018-04-06T02:52:59.261Z,1.90
2018-04-06T02:55:29.658Z,1.90
2018-04-06T02:57:58.883Z,1.80
2018-04-06T03:00:27.818Z,1.80
2018-04-06T03:02:55.797Z,1.70
2018-04-06T03:05:23.514Z,1.80
2018-04-06T03:07:52.381Z,1.90
2018-04-06T03:10:26.352Z,1.80
2018-04-06T03:12:56.515Z,1.80
2018-04-06T03:15:29.452Z,1.80
2018-04-06T03:17:57.361Z,1.80
2018-04-06T03:20:25.830Z,1.90
2018-04-06T03:22:55.727Z,1.80
2018-04-06T03:25:25.349Z,1.80
2018-04-06T03:27:54.769Z,1.70
2018-04-06T03:30:27.635Z,1.70
2018-04-06T03:32:56.912Z,1.60
2018-04-06T03:35:26.878Z,1.50
2018-04-06T03:37:54.828Z,1.40
2018-04-06T03:40:23.579Z,1.40
2018-04-06T03:42:53.978Z,1.50
2018-04-06T03:45:23.140Z,1.40
2018-04-06T03:47:53.049Z,1.30
2018-04-06T03:50:23.873Z,1.20
2018-04-06T03:52:57.095Z,1.10
2018-04-06T03:55:25.930Z,1.00
2018-04-06T03:57:55.143Z,1.10
2018-04-06T04:00:25.488Z,1.10
2018-04-06T04:02:54.179Z,1.10
2018-04-06T04:05:23.278Z,1.00
2018-04-06T04:07:52.627Z,1.00
2018-04-06T04:10:21.478Z,0.90
2018-04-06T04:12:52.182Z,1.00
2018-04-06T04:15:31.660Z,1.00
2018-04-06T04:17:59.946Z,1.00
2018-04-06T04:20:27.573Z,1.00
2018-04-06T04:22:58.234Z,1.10
2018-04-06T04:25:29.273Z,1.10
2018-04-06T04:28:00.650Z,1.10
2018-04-06T04:30:30.029Z,1.20
2018-04-06T04:32:57.932Z,1.20
2018-04-06T04:35:26.232Z,1.10
2018-04-06T04:38:05.177Z,1.20
2018-04-06T04:40:32.682Z,1.10
2018-04-06T04:43:00.976Z,1.00
2018-04-06T04:45:29.977Z,0.90
2018-04-06T04:47:57.983Z,0.90
2018-04-06T04:50:27.443Z,0.90
2018-04-06T04:52:55.338Z,1.00
2018-04-06T04:55:23.452Z,0.90
2018-04-06T04:57:58.269Z,1.00
2018-04-06T05:00:26.454Z,0.90
2018-04-06T05:02:58.920Z,1.00
2018-04-06T05:05:30.038Z,0.90
2018-04-06T05:07:58.320Z,1.10
2018-04-06T05:10:27.158Z,1.10
2018-04-06T05:12:55.766Z,1.20
2018-04-06T05:15:25.408Z,1.20
2018-04-06T05:17:56.516Z,1.20
2018-04-06T05:20:26.142Z,1.20
2018-04-06T05:22:56.190Z,1.30
2018-04-06T05:25:27.243Z,1.40
2018-04-06T05:27:55.990Z,1.40
2018-04-06T05:30:24.237Z,1.50
2018-04-06T05:32:55.746Z,1.60
2018-04-06T05:35:26.285Z,2.20
2018-04-06T05:37:54.777Z,2.90
2018-04-06T05:40:26.363Z,3.90
2018-04-06T05:42:54.969Z,4.60
2018-04-06T05:45:25.601Z,4.50
2018-04-06T05:47:53.302Z,5.10
2018-04-06T05:50:24.744Z,5.90
2018-04-06T05:52:55.882Z,6.90
2018-04-06T05:55:27.019Z,8.10
2018-04-06T05:58:06.837Z,9.30
2018-04-06T06:00:34.350Z,10.40
2018-04-06T06:03:01.842Z,10.90
2018-04-06T06:05:31.274Z,12.00
2018-04-06T06:07:59.501Z,12.00
2018-04-06T06:10:28.381Z,11.00
2018-04-06T06:12:57.580Z,6.90
2018-04-06T06:15:26.280Z,6.90
2018-04-06T06:17:55.585Z,5.90
2018-04-06T06:20:25.917Z,5.60
2018-04-06T06:23:05.410Z,5.20
2018-04-06T06:25:32.929Z,5.00
2018-04-06T06:28:01.197Z,4.80
2018-04-06T06:30:28.718Z,4.70
2018-04-06T06:32:57.105Z,4.70
2018-04-06T06:35:26.749Z,4.70
2018-04-06T06:37:56.283Z,4.70
2018-04-06T06:40:26.112Z,4.70
2018-04-06T06:42:54.616Z,4.70
2018-04-06T06:45:25.634Z,4.70
2018-04-06T06:47:54.254Z,4.90
2018-04-06T06:50:23.750Z,9.60
2018-04-06T06:52:58.652Z,9.60
2018-04-06T06:55:26.662Z,11.60
2018-04-06T06:57:54.865Z,12.40
2018-04-06T07:00:22.576Z,13.00
2018-04-06T07:02:50.109Z,13.60
2018-04-06T07:05:17.613Z,14.30
2018-04-06T07:07:45.129Z,14.30
2018-04-06T07:10:13.395Z,14.80
2018-04-06T07:12:41.089Z,14.80
2018-04-06T07:15:09.557Z,16.90
2018-04-06T07:17:42.038Z,15.70
2018-04-06T07:20:09.717Z,15.70
2018-04-06T07:22:39.011Z,15.00
2018-04-06T07:25:08.398Z,16.30
2018-04-06T07:27:36.973Z,16.30
2018-04-06T07:30:16.341Z,16.70
2018-04-06T07:32:43.896Z,16.70
2018-04-06T07:35:12.163Z,17.30
2018-04-06T07:37:39.682Z,17.30
2018-04-06T07:40:08.364Z,17.20
2018-04-06T07:42:35.873Z,17.30
2018-04-06T07:45:13.489Z,15.90
2018-04-06T07:47:41.961Z,15.00
2018-04-06T07:50:09.464Z,15.70
2018-04-06T07:52:37.357Z,16.60
2018-04-06T07:55:05.895Z,18.20
2018-04-06T07:57:33.595Z,17.50
2018-04-06T08:00:03.428Z,16.90
2018-04-06T08:02:31.264Z,17.60
2018-04-06T08:04:59.854Z,18.60
2018-04-06T08:07:41.510Z,17.70
2018-04-06T08:10:09.001Z,17.60
2018-04-06T08:12:37.543Z,17.30
2018-04-06T08:15:05.146Z,17.30
2018-04-06T08:17:33.114Z,19.00
2018-04-06T08:20:03.761Z,17.40
2018-04-06T08:22:34.819Z,16.50
2018-04-06T08:25:04.021Z,15.90
2018-04-06T08:27:33.655Z,17.10
2018-04-06T08:30:04.421Z,18.40
2018-04-06T08:32:33.857Z,18.80
2018-04-06T08:35:12.430Z,18.80
2018-04-06T08:37:39.965Z,19.80
2018-04-06T08:40:08.466Z,17.80
2018-04-06T08:42:47.017Z,17.80
2018-04-06T08:45:14.506Z,18.00
2018-04-06T08:47:42.016Z,17.50
2018-04-06T08:50:09.609Z,18.70
2018-04-06T08:52:38.256Z,17.10
2018-04-06T08:55:07.716Z,17.10
2018-04-06T08:57:36.445Z,17.10
2018-04-06T09:00:04.714Z,17.10
2018-04-06T09:02:34.715Z,16.90
2018-04-06T09:05:03.256Z,17.80
2018-04-06T09:07:33.209Z,17.80
2018-04-06T09:10:04.024Z,17.50
2018-04-06T09:12:33.215Z,17.40
2018-04-06T09:15:01.727Z,17.60
2018-04-06T09:17:31.591Z,17.80
2018-04-06T09:20:02.848Z,17.20
2018-04-06T09:22:33.011Z,17.70
2018-04-06T09:25:03.330Z,17.10
2018-04-06T09:27:32.052Z,17.10
2018-04-06T09:30:10.585Z,17.00
2018-04-06T09:32:38.900Z,16.60
2018-04-06T09:35:07.230Z,16.60
2018-04-06T09:37:35.131Z,17.20
2018-04-06T09:40:03.547Z,15.50
2018-04-06T09:42:33.491Z,15.50
2018-04-06T09:45:03.110Z,16.30
2018-04-06T09:47:31.889Z,15.80
2018-04-06T09:50:00.086Z,15.50
2018-04-06T09:52:29.358Z,14.90
2018-04-06T09:54:58.010Z,14.50
2018-04-06T09:57:25.583Z,13.60
2018-04-06T09:59:53.061Z,12.80
2018-04-06T10:02:20.842Z,12.70
2018-04-06T10:04:48.599Z,12.70
2018-04-06T10:07:16.130Z,12.80
2018-04-06T10:09:43.630Z,12.50
2018-04-06T10:12:11.919Z,12.30
2018-04-06T10:14:40.172Z,12.00
2018-04-06T10:17:07.698Z,12.00
2018-04-06T10:19:35.194Z,12.50
2018-04-06T10:22:02.900Z,12.30
2018-04-06T10:24:31.457Z,12.30
2018-04-06T10:26:59.183Z,12.20
2018-04-06T10:29:27.746Z,12.30
2018-04-06T10:31:56.261Z,12.50
2018-04-06T10:34:24.561Z,12.70
2018-04-06T10:36:52.850Z,12.50
2018-04-06T10:39:20.474Z,12.50
2018-04-06T10:41:48.301Z,12.60
2018-04-06T10:44:16.590Z,12.70
2018-04-06T10:46:44.891Z,12.50
2018-04-06T10:49:13.161Z,12.60
2018-04-06T10:51:40.678Z,12.60
2018-04-06T10:54:08.257Z,12.60
2018-04-06T10:56:35.774Z,12.60
2018-04-06T10:59:04.315Z,12.70
2018-04-06T11:01:32.832Z,12.70
2018-04-06T11:04:01.721Z,12.70
2018-04-06T11:06:30.923Z,12.80
2018-04-06T11:09:08.814Z,13.00
2018-04-06T11:11:37.114Z,13.00
2018-04-06T11:14:05.417Z,12.90
2018-04-06T11:16:34.148Z,12.80
2018-04-06T11:19:02.009Z,12.80
2018-04-06T11:21:31.217Z,13.00
2018-04-06T11:23:59.357Z,13.10
2018-04-06T11:26:27.728Z,13.00
2018-04-06T11:28:55.381Z,13.00
2018-04-06T11:31:23.018Z,13.10
2018-04-06T11:33:51.297Z,13.10
2018-04-06T11:36:30.414Z,13.30
2018-04-06T11:38:59.404Z,13.20
2018-04-06T11:41:27.952Z,13.10
2018-04-06T11:43:56.370Z,13.10
2018-04-06T11:46:24.154Z,13.40
2018-04-06T11:48:51.787Z,13.40
2018-04-06T11:51:20.053Z,13.50
2018-04-06T11:53:47.977Z,13.50
2018-04-06T11:56:15.487Z,13.40
2018-04-06T11:58:43.009Z,13.40
2018-04-06T12:01:11.292Z,13.60
2018-04-06T12:03:39.566Z,13.60
2018-04-06T12:06:07.831Z,13.60
2018-04-06T12:08:35.851Z,13.60
2018-04-06T12:11:04.144Z,13.50
2018-04-06T12:13:34.095Z,13.90
2018-04-06T12:16:02.857Z,13.90
2018-04-06T12:18:31.003Z,13.80
2018-04-06T12:21:01.105Z,13.70
2018-04-06T12:23:30.337Z,13.60
2018-04-06T12:25:58.212Z,13.70
2018-04-06T12:28:25.778Z,13.90
2018-04-06T12:30:54.234Z,13.90
2018-04-06T12:33:21.844Z,13.90
2018-04-06T12:35:49.810Z,14.00
2018-04-06T12:38:17.315Z,14.10
2018-04-06T12:40:44.938Z,14.20
2018-04-06T12:43:13.214Z,14.50
2018-04-06T12:45:40.738Z,14.50
2018-04-06T12:48:08.270Z,14.70
2018-04-06T12:50:36.877Z,14.50
2018-04-06T12:53:06.420Z,14.50
2018-04-06T12:55:45.794Z,14.50
2018-04-06T12:58:13.510Z,14.50
2018-04-06T13:00:41.798Z,14.50
2018-04-06T13:03:10.403Z,14.50
2018-04-06T13:05:39.201Z,14.60
2018-04-06T13:08:08.068Z,14.80
2018-04-06T13:10:38.251Z,14.90
2018-04-06T13:13:08.489Z,14.90
2018-04-06T13:15:36.934Z,15.00
2018-04-06T13:18:05.288Z,15.00
2018-04-06T13:20:35.735Z,14.90
2018-04-06T13:23:04.644Z,15.20
2018-04-06T13:25:35.446Z,15.10
2018-04-06T13:28:06.729Z,15.30
2018-04-06T13:30:39.018Z,15.10
2018-04-06T13:33:07.293Z,15.10
2018-04-06T13:35:36.684Z,15.20
2018-04-06T13:38:07.840Z,14.80
2018-04-06T13:40:37.741Z,14.80
2018-04-06T13:43:06.346Z,15.00
2018-04-06T13:45:36.958Z,15.00
2018-04-06T13:48:06.159Z,15.00
2018-04-06T13:50:36.073Z,14.90
2018-04-06T13:53:04.722Z,14.90
2018-04-06T13:55:33.467Z,14.90
2018-04-06T13:58:12.014Z,14.90
2018-04-06T14:00:39.961Z,15.00
2018-04-06T14:03:10.322Z,14.90
2018-04-06T14:05:40.601Z,14.90
2018-04-06T14:08:11.104Z,15.20
2018-04-06T14:10:40.074Z,15.30
2018-04-06T14:13:08.121Z,15.30
2018-04-06T14:15:41.761Z,15.10
2018-04-06T14:18:10.460Z,15.10
2018-04-06T14:20:39.432Z,15.10
2018-04-06T14:23:07.731Z,15.20
2018-04-06T14:25:37.364Z,15.30
2018-04-06T14:28:16.201Z,15.30
2018-04-06T14:30:43.689Z,15.30
2018-04-06T14:33:11.275Z,15.30
2018-04-06T14:35:39.671Z,15.30
2018-04-06T14:38:08.186Z,15.40
2018-04-06T14:40:36.591Z,15.40
2018-04-06T14:43:08.105Z,15.50
2018-04-06T14:45:37.048Z,15.60
2018-04-06T14:48:06.828Z,15.70
2018-04-06T14:50:37.775Z,15.60
2018-04-06T14:53:09.046Z,15.60
2018-04-06T14:55:37.687Z,15.60
2018-04-06T14:58:06.927Z,15.40
2018-04-06T15:00:35.718Z,15.40
2018-04-06T15:03:06.338Z,15.40
2018-04-06T15:05:36.565Z,15.40
2018-04-06T15:08:08.702Z,15.50
2018-04-06T15:10:36.541Z,15.50
2018-04-06T15:13:06.582Z,15.50
2018-04-06T15:15:34.656Z,15.50
2018-04-06T15:18:03.707Z,15.50
2018-04-06T15:20:34.547Z,15.50
2018-04-06T15:23:04.381Z,15.50
2018-04-06T15:25:33.592Z,15.50
2018-04-06T15:28:04.535Z,15.50
2018-04-06T15:30:33.288Z,15.50
2018-04-06T15:33:03.606Z,15.50
2018-04-06T15:35:34.540Z,15.60
2018-04-06T15:38:05.180Z,15.60
2018-04-06T15:40:46.029Z,15.40
2018-04-06T15:43:13.559Z,15.40
2018-04-06T15:45:41.967Z,15.30
2018-04-06T15:48:11.158Z,15.30
2018-04-06T15:50:39.680Z,15.30
2018-04-06T15:53:07.712Z,15.20
2018-04-06T15:55:36.767Z,15.10
2018-04-06T15:58:07.287Z,15.20
2018-04-06T16:00:36.277Z,15.10
2018-04-06T16:03:05.483Z,15.10
2018-04-06T16:05:36.659Z,15.10
2018-04-06T16:08:06.281Z,15.10
2018-04-06T16:10:35.791Z,15.10
2018-04-06T16:13:06.651Z,15.10
2018-04-06T16:15:36.365Z,15.10
2018-04-06T16:18:18.020Z,15.10
2018-04-06T16:20:49.290Z,15.20
2018-04-06T16:23:20.596Z,15.20
2018-04-06T16:25:49.666Z,15.20
2018-04-06T16:28:20.350Z,15.10
2018-04-06T16:30:51.177Z,15.10
2018-04-06T16:33:20.422Z,15.10
2018-04-06T16:35:49.719Z,15.10
2018-04-06T16:38:20.101Z,15.00
2018-04-06T16:40:51.402Z,14.90
2018-04-06T16:43:21.825Z,14.90
2018-04-06T16:45:52.017Z,14.80
2018-04-06T16:48:21.637Z,14.60
2018-04-06T16:50:52.186Z,14.60
2018-04-06T16:53:21.361Z,14.60
2018-04-06T16:55:51.146Z,14.50
2018-04-06T16:58:21.102Z,14.30
2018-04-06T17:00:51.162Z,14.30
2018-04-06T17:03:20.730Z,14.10
2018-04-06T17:05:50.877Z,14.10
2018-04-06T17:08:19.917Z,14.00
2018-04-06T17:10:49.816Z,13.90
2018-04-06T17:13:20.711Z,13.90
2018-04-06T17:15:49.872Z,13.80
2018-04-06T17:18:20.808Z,13.70
2018-04-06T17:20:49.521Z,13.60
2018-04-06T17:23:18.899Z,13.40
2018-04-06T17:25:49.130Z,13.40
2018-04-06T17:28:27.273Z,13.40
2018-04-06T17:30:54.795Z,13.40
2018-04-06T17:33:23.061Z,13.20
2018-04-06T17:35:50.661Z,13.20
2018-04-06T17:38:18.998Z,13.20
2018-04-06T17:40:47.189Z,13.20
2018-04-06T17:43:16.006Z,13.20
2018-04-06T17:45:45.647Z,13.20
2018-04-06T17:48:15.406Z,12.80
2018-04-06T17:50:45.223Z,12.80
2018-04-06T17:53:14.861Z,12.90
2018-04-06T17:55:43.722Z,13.00
2018-04-06T17:58:12.204Z,13.00
2018-04-06T18:00:41.905Z,12.90
2018-04-06T18:03:10.697Z,12.90
2018-04-06T18:05:41.965Z,12.70
2018-04-06T18:08:10.342Z,12.70
2018-04-06T18:10:38.869Z,12.60
2018-04-06T18:13:09.148Z,12.50
2018-04-06T18:15:36.902Z,12.60
2018-04-06T18:18:04.926Z,12.50
2018-04-06T18:20:33.121Z,12.50
2018-04-06T18:23:00.763Z,12.40
2018-04-06T18:25:28.262Z,12.30
2018-04-06T18:27:55.798Z,12.30
2018-04-06T18:30:23.294Z,12.20
2018-04-06T18:32:51.575Z,12.30
2018-04-06T18:35:20.578Z,12.30
2018-04-06T18:37:48.829Z,12.20
2018-04-06T18:40:17.961Z,12.10
2018-04-06T18:42:48.408Z,12.10
2018-04-06T18:45:17.241Z,12.10
2018-04-06T18:47:49.112Z,12.10
2018-04-06T18:50:19.841Z,12.10
2018-04-06T18:52:58.761Z,12.00
2018-04-06T18:55:26.248Z,12.00
2018-04-06T18:57:53.761Z,12.00
2018-04-06T19:00:21.713Z,12.00
2018-04-06T19:02:50.433Z,12.00
2018-04-06T19:05:21.478Z,12.00
2018-04-06T19:07:51.481Z,12.00
2018-04-06T19:10:20.680Z,11.80
2018-04-06T19:12:50.951Z,11.80
2018-04-06T19:15:21.936Z,11.80
2018-04-06T19:17:51.848Z,11.80
2018-04-06T19:20:21.134Z,11.80
2018-04-06T19:22:51.466Z,11.70
2018-04-06T19:25:23.361Z,11.80
2018-04-06T19:27:51.748Z,11.60
2018-04-06T19:30:30.945Z,11.50
2018-04-06T19:32:58.436Z,11.50
2018-04-06T19:35:26.050Z,11.60
2018-04-06T19:37:53.542Z,11.50
2018-04-06T19:40:21.053Z,11.40
2018-04-06T19:42:50.449Z,11.40
2018-04-06T19:45:21.070Z,11.40
2018-04-06T19:47:51.493Z,11.40
2018-04-06T19:50:21.776Z,11.40
2018-04-06T19:52:51.633Z,11.40
2018-04-06T19:55:22.009Z,11.40
2018-04-06T19:57:51.916Z,11.30
2018-04-06T20:00:21.630Z,11.40
2018-04-06T20:02:50.341Z,11.40
2018-04-06T20:05:19.460Z,11.40
2018-04-06T20:07:50.689Z,11.30
2018-04-06T20:10:21.641Z,11.30
2018-04-06T20:12:52.077Z,11.30
2018-04-06T20:15:21.004Z,11.20
2018-04-06T20:17:51.339Z,11.20
2018-04-06T20:20:19.989Z,11.20
2018-04-06T20:22:51.077Z,11.10
2018-04-06T20:25:21.361Z,11.20
2018-04-06T20:27:51.813Z,11.20
2018-04-06T20:30:29.742Z,11.10
2018-04-06T20:32:57.346Z,11.20
2018-04-06T20:35:25.610Z,11.10
2018-04-06T20:37:53.133Z,11.10
2018-04-06T20:40:20.862Z,11.10
2018-04-06T20:42:50.809Z,11.10
2018-04-06T20:45:20.068Z,11.10
2018-04-06T20:47:49.243Z,11.10
2018-04-06T20:50:19.780Z,11.10
2018-04-06T20:52:49.743Z,11.10
2018-04-06T20:55:19.669Z,11.00
2018-04-06T20:57:48.240Z,10.90
2018-04-06T21:00:18.024Z,10.80
2018-04-06T21:02:47.603Z,10.80
2018-04-06T21:05:17.615Z,11.00
2018-04-06T21:07:47.348Z,11.00
2018-04-06T21:10:17.621Z,10.80
2018-04-06T21:12:47.996Z,10.80
2018-04-06T21:15:18.598Z,10.90
2018-04-06T21:17:49.399Z,10.70
2018-04-06T21:20:19.291Z,10.70
2018-04-06T21:22:47.537Z,10.70
2018-04-06T21:25:17.708Z,10.70
2018-04-06T21:27:46.609Z,10.70
2018-04-06T21:30:16.829Z,10.70
2018-04-06T21:32:47.443Z,10.70
2018-04-06T21:35:19.302Z,10.70
2018-04-06T21:37:48.469Z,10.50
2018-04-06T21:40:19.899Z,10.70
2018-04-06T21:42:49.575Z,10.70
2018-04-06T21:45:20.209Z,10.80
2018-04-06T21:47:50.070Z,10.80
2018-04-06T21:50:20.894Z,10.90
2018-04-06T21:52:49.045Z,10.80
2018-04-06T21:55:26.916Z,10.80
2018-04-06T21:57:55.179Z,10.90
2018-04-06T22:00:22.769Z,10.90
2018-04-06T22:02:51.100Z,11.00
2018-04-06T22:05:29.126Z,11.00
2018-04-06T22:07:56.619Z,11.00
2018-04-06T22:10:24.141Z,10.90
2018-04-06T22:12:51.641Z,10.80
2018-04-06T22:15:21.015Z,10.90
2018-04-06T22:17:50.200Z,10.80
2018-04-06T22:20:21.146Z,10.80
2018-04-06T22:22:50.261Z,11.00
2018-04-06T22:25:21.141Z,10.80
2018-04-06T22:27:49.505Z,10.90
2018-04-06T22:30:19.965Z,10.90
2018-04-06T22:32:50.457Z,10.90
2018-04-06T22:35:30.993Z,10.90
2018-04-06T22:37:58.560Z,10.80
2018-04-06T22:40:26.062Z,10.90
2018-04-06T22:42:53.574Z,10.90
2018-04-06T22:45:37.345Z,11.00
2018-04-06T22:48:16.927Z,11.00
2018-04-06T22:50:49.555Z,11.00
2018-04-06T22:53:38.899Z,11.10
2018-04-06T22:56:21.827Z,11.20
2018-04-06T22:59:03.338Z,11.20
2018-04-06T23:01:30.855Z,11.10
2018-04-06T23:03:58.362Z,11.10
2018-04-06T23:06:25.878Z,10.90
2018-04-06T23:08:53.369Z,10.90
2018-04-06T23:11:22.208Z,11.00
2018-04-06T23:13:52.305Z,10.90
2018-04-06T23:16:22.637Z,10.90
2018-04-06T23:18:52.193Z,11.10
2018-04-06T23:21:22.401Z,10.90
2018-04-06T23:23:52.337Z,10.90
2018-04-06T23:26:30.162Z,11.00
2018-04-06T23:28:57.657Z,11.00
2018-04-06T23:31:25.155Z,10.80
2018-04-06T23:33:52.919Z,10.80
2018-04-06T23:36:22.770Z,10.70
2018-04-06T23:38:57.685Z,10.70
2018-04-06T23:41:34.782Z,10.60
2018-04-06T23:44:02.325Z,10.70
2018-04-06T23:46:30.824Z,10.60
2018-04-06T23:48:59.101Z,10.60
2018-04-06T23:51:26.589Z,10.50
2018-04-06T23:53:54.902Z,10.30
2018-04-06T23:56:23.190Z,10.20
2018-04-06T23:58:52.143Z,10.20
